createdAt,value
2018-06-17T00:00:59.097Z,93.50
2018-06-17T00:03:27.316Z,93.40
2018-06-17T00:05:55.528Z,93.30
2018-06-17T00:08:23.782Z,93.10
2018-06-17T00:10:51.987Z,92.80
2018-06-17T00:13:20.210Z,92.50
2018-06-17T00:15:48.462Z,92.50
2018-06-17T00:18:16.694Z,92.60
2018-06-17T00:23:12.874Z,92.60
2018-06-17T00:25:41.106Z,92.60
2018-06-17T00:28:09.307Z,92.80
2018-06-17T00:30:37.557Z,92.80
2018-06-17T00:33:05.767Z,92.80
2018-06-17T00:35:33.994Z,92.60
2018-06-17T00:38:02.246Z,92.60
2018-06-17T00:40:30.510Z,92.90
2018-06-17T00:42:58.715Z,92.80
2018-06-17T00:45:26.948Z,93.10
2018-06-17T00:47:55.161Z,92.80
2018-06-17T00:50:23.407Z,92.90
2018-06-17T00:52:51.662Z,93.00
2018-06-17T00:55:19.879Z,93.00
2018-06-17T00:57:49.798Z,93.10
2018-06-17T01:00:18.433Z,93.00
2018-06-17T01:02:46.740Z,92.90
2018-06-17T01:05:15.354Z,92.40
2018-06-17T01:07:43.558Z,92.40
2018-06-17T01:10:11.744Z,92.50
2018-06-17T01:12:40.293Z,92.50
2018-06-17T01:15:08.706Z,92.40
2018-06-17T01:17:37.233Z,92.00
2018-06-17T01:20:05.751Z,92.00
2018-06-17T01:22:33.977Z,91.70
2018-06-17T01:25:02.204Z,91.30
2018-06-17T01:27:30.433Z,91.20
2018-06-17T01:29:58.664Z,91.40
2018-06-17T01:32:26.884Z,91.60
2018-06-17T01:34:55.088Z,91.50
2018-06-17T01:37:23.443Z,91.60
2018-06-17T01:39:51.661Z,91.60
2018-06-17T01:42:19.873Z,91.40
2018-06-17T01:44:48.113Z,91.00
2018-06-17T01:47:16.315Z,90.80
2018-06-17T01:49:44.494Z,90.50
2018-06-17T01:52:12.738Z,90.70
2018-06-17T01:54:40.944Z,90.60
2018-06-17T01:57:09.154Z,90.40
2018-06-17T01:59:37.359Z,90.30
2018-06-17T02:02:05.557Z,90.10
2018-06-17T02:05:39.614Z,88.90
2018-06-17T02:08:13.291Z,88.20
2018-06-17T02:10:46.813Z,88.70
2018-06-17T02:13:14.977Z,89.40
2018-06-17T02:15:43.193Z,88.60
2018-06-17T02:18:11.416Z,88.40
2018-06-17T02:20:39.624Z,89.30
2018-06-17T02:23:07.819Z,88.30
2018-06-17T02:25:35.998Z,88.50
2018-06-17T02:28:04.192Z,89.10
2018-06-17T02:30:32.376Z,89.90
2018-06-17T02:33:00.626Z,90.10
2018-06-17T02:35:28.840Z,90.50
2018-06-17T02:37:57.028Z,90.70
2018-06-17T02:40:25.252Z,90.70
2018-06-17T02:42:53.498Z,91.00
2018-06-17T02:45:27.136Z,90.90
2018-06-17T02:48:00.622Z,90.70
2018-06-17T02:50:34.334Z,90.70
2018-06-17T02:53:07.929Z,90.60
2018-06-17T02:55:36.147Z,90.60
2018-06-17T02:58:04.317Z,90.10
2018-06-17T03:00:32.534Z,89.00
2018-06-17T03:03:00.715Z,88.60
2018-06-17T03:05:28.884Z,88.50
2018-06-17T03:07:57.073Z,87.40
2018-06-17T03:10:25.269Z,86.00
2018-06-17T03:12:53.474Z,86.20
2018-06-17T03:15:21.637Z,85.60
2018-06-17T03:17:49.850Z,84.90
2018-06-17T03:20:18.058Z,84.10
2018-06-17T03:22:46.259Z,83.00
2018-06-17T03:27:27.990Z,82.80
2018-06-17T03:30:01.514Z,81.90
2018-06-17T03:32:35.151Z,82.30
2018-06-17T03:35:08.781Z,82.30
2018-06-17T03:37:36.972Z,83.00
2018-06-17T03:40:05.173Z,83.10
2018-06-17T03:42:33.363Z,83.40
2018-06-17T03:45:01.594Z,83.50
2018-06-17T03:47:29.786Z,83.90
2018-06-17T03:49:57.983Z,84.50
2018-06-17T03:52:26.209Z,84.50
2018-06-17T03:54:54.416Z,84.90
2018-06-17T03:57:22.602Z,85.50
2018-06-17T03:59:50.811Z,86.00
2018-06-17T04:02:18.988Z,85.80
2018-06-17T04:04:52.580Z,85.90
2018-06-17T04:07:20.776Z,84.80
2018-06-17T04:09:48.984Z,84.50
2018-06-17T04:12:17.181Z,84.30
2018-06-17T04:14:45.358Z,83.80
2018-06-17T04:17:14.938Z,83.60
2018-06-17T04:19:44.652Z,83.70
2018-06-17T04:22:13.117Z,83.80
2018-06-17T04:24:41.322Z,83.40
2018-06-17T04:27:09.682Z,83.30
2018-06-17T04:29:37.905Z,82.80
2018-06-17T04:32:06.184Z,82.50
2018-06-17T04:34:34.409Z,83.00
2018-06-17T04:37:02.604Z,83.00
2018-06-17T04:39:30.805Z,82.70
2018-06-17T04:44:26.925Z,82.30
2018-06-17T04:46:55.094Z,82.50
2018-06-17T04:49:23.299Z,82.40
2018-06-17T04:51:51.500Z,82.00
2018-06-17T04:54:19.701Z,81.60
2018-06-17T04:56:47.899Z,81.10
2018-06-17T04:59:16.074Z,80.90
2018-06-17T05:01:44.270Z,80.80
2018-06-17T05:04:12.465Z,80.00
2018-06-17T05:06:40.651Z,80.60
2018-06-17T05:09:09.669Z,80.70
2018-06-17T05:11:37.846Z,79.90
2018-06-17T05:14:06.319Z,79.00
2018-06-17T05:16:34.493Z,79.20
2018-06-17T05:19:02.645Z,78.80
2018-06-17T05:21:32.316Z,79.80
2018-06-17T05:24:00.629Z,80.00
2018-06-17T05:26:28.841Z,80.00
2018-06-17T05:28:57.065Z,79.80
2018-06-17T05:31:25.231Z,79.70
2018-06-17T05:33:53.495Z,79.80
2018-06-17T05:36:21.637Z,79.60
2018-06-17T05:38:49.835Z,79.50
2018-06-17T05:41:18.005Z,79.00
2018-06-17T05:43:46.249Z,79.40
2018-06-17T05:46:14.412Z,79.80
2018-06-17T05:48:42.591Z,79.80
2018-06-17T05:51:10.772Z,79.40
2018-06-17T05:53:38.965Z,80.70
2018-06-17T05:56:07.146Z,79.50
2018-06-17T05:58:35.288Z,79.40
2018-06-17T06:01:04.327Z,78.70
2018-06-17T06:03:32.490Z,78.70
2018-06-17T06:06:00.709Z,76.60
2018-06-17T06:08:28.918Z,77.00
2018-06-17T06:10:57.073Z,77.80
2018-06-17T06:13:25.226Z,76.40
2018-06-17T06:15:53.396Z,77.00
2018-06-17T06:18:21.598Z,75.60
2018-06-17T06:20:49.899Z,75.90
2018-06-17T06:23:18.105Z,74.90
2018-06-17T06:25:46.281Z,74.20
2018-06-17T06:28:14.488Z,73.50
2018-06-17T06:30:42.663Z,73.80
2018-06-17T06:33:10.966Z,73.60
2018-06-17T06:35:39.177Z,73.10
2018-06-17T06:38:07.505Z,73.20
2018-06-17T06:40:35.728Z,71.40
2018-06-17T06:43:03.942Z,71.30
2018-06-17T06:45:32.387Z,70.50
2018-06-17T06:48:00.555Z,68.90
2018-06-17T06:50:28.745Z,68.80
2018-06-17T06:52:56.929Z,68.20
2018-06-17T06:55:25.155Z,67.90
2018-06-17T06:57:53.478Z,67.80
2018-06-17T07:00:21.973Z,66.50
2018-06-17T07:03:01.786Z,66.30
2018-06-17T07:05:41.464Z,66.90
2018-06-17T07:08:21.157Z,66.10
2018-06-17T07:10:49.337Z,65.70
2018-06-17T07:13:17.513Z,63.40
2018-06-17T07:15:57.185Z,63.90
2018-06-17T07:18:35.261Z,63.80
2018-06-17T07:21:03.665Z,62.20
2018-06-17T07:23:31.901Z,62.40
2018-06-17T07:26:41.733Z,61.90
2018-06-17T07:29:22.482Z,61.90
2018-06-17T07:31:50.678Z,62.90
2018-06-17T07:34:18.856Z,61.60
2018-06-17T07:36:47.067Z,61.70
2018-06-17T07:40:31.130Z,60.10
2018-06-17T07:42:59.923Z,60.10
2018-06-17T07:45:28.098Z,60.10
2018-06-17T07:50:33.022Z,59.70
2018-06-17T07:53:14.037Z,59.60
2018-06-17T07:55:42.250Z,58.20
2018-06-17T07:58:10.508Z,57.20
2018-06-17T08:00:38.710Z,56.80
2018-06-17T08:03:06.935Z,57.00
2018-06-17T08:05:35.185Z,55.80
2018-06-17T08:08:03.420Z,55.50
2018-06-17T08:10:31.582Z,54.50
2018-06-17T08:12:59.777Z,52.60
2018-06-17T08:15:27.960Z,48.20
2018-06-17T08:17:56.165Z,48.10
2018-06-17T08:20:24.378Z,47.20
2018-06-17T08:22:52.583Z,45.70
2018-06-17T08:27:48.740Z,43.30
2018-06-17T08:30:17.021Z,44.30
2018-06-17T08:32:45.217Z,45.70
2018-06-17T08:35:13.397Z,46.70
2018-06-17T08:37:41.586Z,47.80
2018-06-17T08:40:09.767Z,49.00
2018-06-17T08:42:37.941Z,50.90
2018-06-17T08:45:06.123Z,52.20
2018-06-17T08:47:34.304Z,53.50
2018-06-17T08:50:03.950Z,53.70
2018-06-17T08:52:32.132Z,54.60
2018-06-17T08:55:00.322Z,53.20
2018-06-17T08:57:29.367Z,52.20
2018-06-17T08:59:57.575Z,49.40
2018-06-17T09:02:25.808Z,48.50
2018-06-17T09:04:53.980Z,48.10
2018-06-17T09:07:22.144Z,48.70
2018-06-17T09:09:52.066Z,49.10
2018-06-17T09:12:20.237Z,48.60
2018-06-17T09:14:48.409Z,48.20
2018-06-17T09:17:17.654Z,49.00
2018-06-17T09:19:45.840Z,48.80
2018-06-17T09:22:14.137Z,50.20
2018-06-17T09:24:42.372Z,50.10
2018-06-17T09:27:10.617Z,51.20
2018-06-17T09:29:38.797Z,50.40
2018-06-17T09:32:07.093Z,49.10
2018-06-17T09:34:35.261Z,48.00
2018-06-17T09:37:03.521Z,45.90
2018-06-17T09:39:31.702Z,45.40
2018-06-17T09:41:59.896Z,45.90
2018-06-17T09:44:28.194Z,46.90
2018-06-17T09:46:56.295Z,47.60
2018-06-17T09:49:24.473Z,48.10
2018-06-17T09:51:52.682Z,48.60
2018-06-17T09:54:20.863Z,48.60
2018-06-17T09:56:51.186Z,48.00
2018-06-17T09:59:19.364Z,48.30
2018-06-17T10:01:47.581Z,48.70
2018-06-17T10:04:15.744Z,48.90
2018-06-17T10:06:43.921Z,49.80
2018-06-17T10:09:12.178Z,50.80
2018-06-17T10:11:40.380Z,51.20
2018-06-17T10:14:08.560Z,50.60
2018-06-17T10:16:38.176Z,50.50
2018-06-17T10:19:06.417Z,50.90
2018-06-17T10:21:34.564Z,50.80
2018-06-17T10:24:02.754Z,51.00
2018-06-17T10:26:30.933Z,51.70
2018-06-17T10:28:59.190Z,53.00
2018-06-17T10:31:28.234Z,53.10
2018-06-17T10:33:56.458Z,53.40
2018-06-17T10:36:24.646Z,52.70
2018-06-17T10:38:52.808Z,52.00
2018-06-17T10:41:21.003Z,50.90
2018-06-17T10:43:49.177Z,49.90
2018-06-17T10:46:17.430Z,47.80
2018-06-17T10:48:45.614Z,47.60
2018-06-17T10:51:13.811Z,48.40
2018-06-17T10:53:41.981Z,49.20
2018-06-17T10:56:10.301Z,50.20
2018-06-17T10:58:38.391Z,50.20
2018-06-17T11:01:06.589Z,51.20
2018-06-17T11:03:34.803Z,51.90
2018-06-17T11:06:03.002Z,52.40
2018-06-17T11:08:31.164Z,52.50
2018-06-17T11:11:03.136Z,52.90
2018-06-17T11:13:31.396Z,52.90
2018-06-17T11:15:59.557Z,53.20
2018-06-17T11:18:27.724Z,52.10
2018-06-17T11:20:55.921Z,52.30
2018-06-17T11:23:24.127Z,52.20
2018-06-17T11:25:52.517Z,51.20
2018-06-17T11:28:20.669Z,51.30
2018-06-17T11:30:48.841Z,52.40
2018-06-17T11:33:17.149Z,52.70
2018-06-17T11:35:45.313Z,52.90
2018-06-17T11:38:13.454Z,53.10
2018-06-17T11:40:41.647Z,53.70
2018-06-17T11:43:09.790Z,54.00
2018-06-17T11:45:37.905Z,54.00
2018-06-17T11:48:06.029Z,53.80
2018-06-17T11:50:34.177Z,54.00
2018-06-17T11:53:02.309Z,53.50
2018-06-17T11:55:30.471Z,52.60
2018-06-17T11:57:58.716Z,52.20
2018-06-17T12:00:26.844Z,55.80
2018-06-17T12:02:54.988Z,53.60
2018-06-17T12:05:23.212Z,52.40
2018-06-17T12:07:51.389Z,52.10
2018-06-17T12:10:19.583Z,53.80
2018-06-17T12:12:47.781Z,52.60
2018-06-17T12:15:15.998Z,53.30
2018-06-17T12:17:50.631Z,53.40
2018-06-17T12:20:18.781Z,54.70
2018-06-17T12:22:46.945Z,54.50
2018-06-17T12:25:15.336Z,55.00
2018-06-17T12:27:43.445Z,53.50
2018-06-17T12:30:11.604Z,54.10
2018-06-17T12:32:39.760Z,54.00
2018-06-17T12:35:07.908Z,53.40
2018-06-17T12:37:36.043Z,56.60
2018-06-17T12:40:04.489Z,54.50
2018-06-17T12:42:32.616Z,54.20
2018-06-17T12:45:00.761Z,54.90
2018-06-17T12:47:28.957Z,54.40
2018-06-17T12:49:57.110Z,53.90
2018-06-17T12:52:28.300Z,54.80
2018-06-17T12:54:56.450Z,55.20
2018-06-17T12:57:25.260Z,55.50
2018-06-17T12:59:53.475Z,54.90
2018-06-17T13:02:21.612Z,54.00
2018-06-17T13:04:49.837Z,54.50
2018-06-17T13:07:17.969Z,54.30
2018-06-17T13:09:46.118Z,55.10
2018-06-17T13:12:14.260Z,55.30
2018-06-17T13:14:42.401Z,55.30
2018-06-17T13:17:10.551Z,55.30
2018-06-17T13:19:38.680Z,55.10
2018-06-17T13:22:07.088Z,54.40
2018-06-17T13:24:35.276Z,54.80
2018-06-17T13:27:03.420Z,53.00
2018-06-17T13:29:31.560Z,53.30
2018-06-17T13:31:59.737Z,52.60
2018-06-17T13:34:27.869Z,53.60
2018-06-17T13:36:56.055Z,53.10
2018-06-17T13:39:24.196Z,53.30
2018-06-17T13:41:52.359Z,49.80
2018-06-17T13:44:20.501Z,49.80
2018-06-17T13:46:48.641Z,49.30
2018-06-17T13:49:16.800Z,49.70
2018-06-17T13:51:45.018Z,50.40
2018-06-17T13:54:13.204Z,49.00
2018-06-17T13:56:41.341Z,49.30
2018-06-17T13:59:09.485Z,49.70
2018-06-17T14:01:37.628Z,46.90
2018-06-17T14:04:05.761Z,49.90
2018-06-17T14:06:33.908Z,48.40
2018-06-17T14:09:02.060Z,49.30
2018-06-17T14:11:30.572Z,48.80
2018-06-17T14:13:58.749Z,48.40
2018-06-17T14:16:26.929Z,48.80
2018-06-17T14:21:23.847Z,47.20
2018-06-17T14:23:52.200Z,48.10
2018-06-17T14:26:20.367Z,46.50
2018-06-17T14:28:48.918Z,46.50
2018-06-17T14:31:17.147Z,45.90
2018-06-17T14:33:45.313Z,45.80
2018-06-17T14:36:13.533Z,46.10
2018-06-17T14:38:41.988Z,45.90
2018-06-17T14:41:15.496Z,45.50
2018-06-17T14:43:49.168Z,46.90
2018-06-17T14:46:22.709Z,47.50
2018-06-17T14:48:56.761Z,47.30
2018-06-17T14:51:30.433Z,47.40
2018-06-17T14:53:58.849Z,47.60
2018-06-17T14:56:27.387Z,49.10
2018-06-17T14:58:55.993Z,47.80
2018-06-17T15:01:24.852Z,46.90
2018-06-17T15:03:53.477Z,46.40
2018-06-17T15:06:21.607Z,46.90
2018-06-17T15:08:49.809Z,47.50
2018-06-17T15:11:17.957Z,48.40
2018-06-17T15:13:46.096Z,49.70
2018-06-17T15:16:14.334Z,50.30
2018-06-17T15:18:42.529Z,47.80
2018-06-17T15:21:10.933Z,49.90
2018-06-17T15:23:39.196Z,48.50
2018-06-17T15:26:07.390Z,47.80
2018-06-17T15:28:35.577Z,47.30
2018-06-17T15:31:09.123Z,47.50
2018-06-17T15:33:42.809Z,48.60
2018-06-17T15:36:16.280Z,47.00
2018-06-17T15:38:51.296Z,47.60
2018-06-17T15:41:25.998Z,47.40
2018-06-17T15:43:55.725Z,50.40
2018-06-17T15:46:24.041Z,47.10
2018-06-17T15:48:52.247Z,48.90
2018-06-17T15:51:20.484Z,48.10
2018-06-17T15:53:49.002Z,47.70
2018-06-17T15:56:17.257Z,46.90
2018-06-17T15:58:45.474Z,47.90
2018-06-17T16:01:13.734Z,47.80
2018-06-17T16:03:41.951Z,47.40
2018-06-17T16:06:10.176Z,47.40
2018-06-17T16:08:38.399Z,47.50
2018-06-17T16:11:06.822Z,47.60
2018-06-17T16:13:40.513Z,47.60
2018-06-17T16:16:13.933Z,48.40
2018-06-17T16:18:48.330Z,47.10
2018-06-17T16:21:16.629Z,47.20
2018-06-17T16:23:44.841Z,47.60
2018-06-17T16:26:13.063Z,48.10
2018-06-17T16:28:41.304Z,48.20
2018-06-17T16:31:09.572Z,48.30
2018-06-17T16:33:37.800Z,48.90
2018-06-17T16:36:06.073Z,49.40
2018-06-17T16:38:34.349Z,49.20
2018-06-17T16:41:02.535Z,48.60
2018-06-17T16:43:30.873Z,49.60
2018-06-17T16:45:59.058Z,50.50
2018-06-17T16:48:27.234Z,50.20
2018-06-17T16:51:01.908Z,50.70
2018-06-17T16:56:08.893Z,51.20
2018-06-17T16:58:42.382Z,51.00
2018-06-17T17:01:10.633Z,49.60
2018-06-17T17:03:38.833Z,49.60
2018-06-17T17:06:07.044Z,50.30
2018-06-17T17:08:37.205Z,50.00
2018-06-17T17:11:05.434Z,50.10
2018-06-17T17:13:33.644Z,51.00
2018-06-17T17:16:02.158Z,50.60
2018-06-17T17:18:30.402Z,50.90
2018-06-17T17:20:58.613Z,51.20
2018-06-17T17:23:26.894Z,51.40
2018-06-17T17:25:54.978Z,50.70
2018-06-17T17:28:24.176Z,50.70
2018-06-17T17:30:54.150Z,50.20
2018-06-17T17:33:27.727Z,50.30
2018-06-17T17:36:01.146Z,52.00
2018-06-17T17:38:33.581Z,51.90
2018-06-17T17:41:03.863Z,51.80
2018-06-17T17:43:32.065Z,51.90
2018-06-17T17:46:05.565Z,52.10
2018-06-17T17:48:33.738Z,52.20
2018-06-17T17:51:02.391Z,52.50
2018-06-17T17:53:31.085Z,52.70
2018-06-17T17:55:59.561Z,52.90
2018-06-17T17:58:27.839Z,53.20
2018-06-17T18:00:56.809Z,53.70
2018-06-17T18:03:24.997Z,53.90
2018-06-17T18:05:53.200Z,53.50
2018-06-17T18:08:21.401Z,55.40
2018-06-17T18:10:49.949Z,55.60
2018-06-17T18:13:18.167Z,55.30
2018-06-17T18:15:46.373Z,55.60
2018-06-17T18:18:14.621Z,55.20
2018-06-17T18:20:42.803Z,55.70
2018-06-17T18:23:11.628Z,55.00
2018-06-17T18:25:45.716Z,56.50
2018-06-17T18:28:19.650Z,55.60
2018-06-17T18:30:53.121Z,55.90
2018-06-17T18:33:26.669Z,56.20
2018-06-17T18:36:00.260Z,56.30
2018-06-17T18:38:28.454Z,56.30
2018-06-17T18:40:57.993Z,57.30
2018-06-17T18:43:26.185Z,57.60
2018-06-17T18:45:54.371Z,58.10
2018-06-17T18:48:22.541Z,58.10
2018-06-17T18:50:50.716Z,58.00
2018-06-17T18:53:22.152Z,58.20
2018-06-17T18:55:50.372Z,58.60
2018-06-17T18:58:18.823Z,58.60
2018-06-17T19:00:47.059Z,58.00
2018-06-17T19:03:15.373Z,57.70
2018-06-17T19:05:43.572Z,58.10
2018-06-17T19:08:17.186Z,58.30
2018-06-17T19:13:23.869Z,59.10
2018-06-17T19:15:57.490Z,58.90
2018-06-17T19:18:26.013Z,59.60
2018-06-17T19:20:54.414Z,59.50
2018-06-17T19:23:22.516Z,59.90
2018-06-17T19:25:50.749Z,59.90
2018-06-17T19:28:18.914Z,59.80
2018-06-17T19:30:47.110Z,60.20
2018-06-17T19:33:15.296Z,60.80
2018-06-17T19:35:43.513Z,61.50
2018-06-17T19:38:11.673Z,61.40
2018-06-17T19:40:39.864Z,61.70
2018-06-17T19:43:08.020Z,61.40
2018-06-17T19:45:36.315Z,61.80
2018-06-17T19:48:05.429Z,62.00
2018-06-17T19:52:41.728Z,62.50
2018-06-17T19:55:16.222Z,62.30
2018-06-17T19:57:49.588Z,62.80
2018-06-17T20:00:23.077Z,63.60
2018-06-17T20:02:51.393Z,63.30
2018-06-17T20:05:19.704Z,63.40
2018-06-17T20:07:47.946Z,63.60
2018-06-17T20:10:16.172Z,63.70
2018-06-17T20:12:44.401Z,63.80
2018-06-17T20:15:12.736Z,63.70
2018-06-17T20:17:40.992Z,63.80
2018-06-17T20:20:09.194Z,64.50
2018-06-17T20:22:41.293Z,65.30
2018-06-17T20:25:09.553Z,68.60
2018-06-17T20:27:37.830Z,70.30
2018-06-17T20:30:06.743Z,71.70
2018-06-17T20:32:40.317Z,72.10
2018-06-17T20:35:13.975Z,73.40
2018-06-17T20:37:47.644Z,74.40
2018-06-17T20:40:21.172Z,75.00
2018-06-17T20:42:54.797Z,75.40
2018-06-17T20:45:23.061Z,76.00
2018-06-17T20:47:51.395Z,76.90
2018-06-17T20:50:20.156Z,76.90
2018-06-17T20:52:48.684Z,77.10
2018-06-17T20:55:16.914Z,77.80
2018-06-17T20:57:45.135Z,77.40
2018-06-17T21:00:13.431Z,77.10
2018-06-17T21:02:41.812Z,77.30
2018-06-17T21:05:10.041Z,77.20
2018-06-17T21:07:38.262Z,77.20
2018-06-17T21:10:06.725Z,77.00
2018-06-17T21:12:34.955Z,76.80
2018-06-17T21:15:07.434Z,76.20
2018-06-17T21:17:35.636Z,76.90
2018-06-17T21:20:09.280Z,76.10
2018-06-17T21:22:42.926Z,76.10
2018-06-17T21:25:16.567Z,76.10
2018-06-17T21:27:45.200Z,76.10
2018-06-17T21:30:13.387Z,77.30
2018-06-17T21:32:41.661Z,77.00
2018-06-17T21:35:10.479Z,78.00
2018-06-17T21:37:38.661Z,78.00
2018-06-17T21:40:06.901Z,78.10
2018-06-17T21:42:35.106Z,77.70
2018-06-17T21:45:03.409Z,78.40
2018-06-17T21:47:31.665Z,78.20
2018-06-17T21:50:00.091Z,77.60
2018-06-17T21:52:28.318Z,78.60
2018-06-17T21:54:56.548Z,77.80
2018-06-17T21:57:24.793Z,76.80
2018-06-17T21:59:53.035Z,77.10
2018-06-17T22:02:21.344Z,77.30
2018-06-17T22:04:49.634Z,76.70
2018-06-17T22:07:17.864Z,75.90
2018-06-17T22:09:51.535Z,75.70
2018-06-17T22:12:25.034Z,75.20
2018-06-17T22:14:58.545Z,75.20
2018-06-17T22:17:32.197Z,75.10
2018-06-17T22:22:28.465Z,75.30
2018-06-17T22:24:56.657Z,76.00
2018-06-17T22:27:24.988Z,75.20
2018-06-17T22:29:53.200Z,75.20
2018-06-17T22:32:21.462Z,75.30
2018-06-17T22:34:49.745Z,75.30
2018-06-17T22:37:17.902Z,75.30
2018-06-17T22:39:46.096Z,74.90
2018-06-17T22:42:14.314Z,75.10
2018-06-17T22:44:42.473Z,75.50
2018-06-17T22:47:10.666Z,75.00
2018-06-17T22:49:38.874Z,76.40
2018-06-17T22:52:07.050Z,75.50
2018-06-17T22:54:47.135Z,75.20
2018-06-17T22:57:20.861Z,75.40
2018-06-17T22:59:54.452Z,75.50
2018-06-17T23:02:28.118Z,76.80
2018-06-17T23:05:01.835Z,76.40
2018-06-17T23:07:35.416Z,76.10
2018-06-17T23:10:04.073Z,76.50
2018-06-17T23:15:00.325Z,77.00
2018-06-17T23:17:28.750Z,77.40
2018-06-17T23:19:57.011Z,77.80
2018-06-17T23:22:25.293Z,78.30
2018-06-17T23:24:53.562Z,78.50
2018-06-17T23:27:21.736Z,78.50
2018-06-17T23:29:49.956Z,78.50
2018-06-17T23:32:18.182Z,79.20
2018-06-17T23:34:46.434Z,79.00
2018-06-17T23:37:14.687Z,79.90
2018-06-17T23:39:42.817Z,78.90
2018-06-17T23:42:11.090Z,79.00
2018-06-17T23:44:39.382Z,79.90
2018-06-17T23:47:12.956Z,78.50
2018-06-17T23:49:46.379Z,78.80
2018-06-17T23:52:20.005Z,78.80
2018-06-17T23:57:21.555Z,78.70
2018-06-17T23:59:49.730Z,79.00
